createdAt,value
2018-11-04T00:01:27.829Z,13.20
2018-11-04T00:03:55.949Z,16.83
2018-11-04T00:06:24.203Z,17.00
2018-11-04T00:08:52.441Z,17.67
2018-11-04T00:11:20.672Z,16.50
2018-11-04T00:13:48.886Z,12.40
2018-11-04T00:16:17.150Z,17.73
2018-11-04T00:18:45.346Z,13.97
2018-11-04T00:21:13.585Z,13.37
2018-11-04T00:23:41.777Z,14.60
2018-11-04T00:26:10.027Z,12.07
2018-11-04T00:28:38.280Z,17.43
2018-11-04T00:31:06.448Z,19.83
2018-11-04T00:33:34.674Z,15.30
2018-11-04T00:36:02.877Z,14.60
2018-11-04T00:38:31.085Z,15.43
2018-11-04T00:40:59.273Z,15.10
2018-11-04T00:43:27.512Z,14.43
2018-11-04T00:45:55.721Z,14.93
2018-11-04T00:48:23.978Z,14.37
2018-11-04T00:50:52.158Z,13.10
2018-11-04T00:53:20.488Z,15.40
2018-11-04T00:55:53.105Z,18.87
2018-11-04T00:58:39.446Z,19.23
2018-11-04T01:01:07.685Z,17.57
2018-11-04T01:03:35.923Z,18.30
2018-11-04T01:06:04.130Z,19.07
2018-11-04T01:08:32.301Z,18.63
2018-11-04T01:11:00.544Z,16.03
2018-11-04T01:13:28.802Z,19.10
2018-11-04T01:15:57.070Z,22.17
2018-11-04T01:18:25.290Z,19.40
2018-11-04T01:20:53.524Z,20.90
2018-11-04T01:23:21.823Z,17.47
2018-11-04T01:25:50.047Z,15.20
2018-11-04T01:28:18.274Z,18.93
2018-11-04T01:30:46.480Z,21.03
2018-11-04T01:33:14.842Z,17.23
2018-11-04T01:35:43.048Z,16.17
2018-11-04T01:38:11.261Z,14.73
2018-11-04T01:40:39.503Z,15.53
2018-11-04T01:43:07.728Z,18.73
2018-11-04T01:45:35.958Z,18.00
2018-11-04T01:48:04.223Z,17.60
2018-11-04T01:50:32.431Z,16.93
2018-11-04T01:53:00.640Z,17.67
2018-11-04T01:55:28.835Z,17.90
2018-11-04T01:57:57.094Z,20.67
2018-11-04T02:00:25.267Z,19.43
2018-11-04T02:02:53.488Z,19.83
2018-11-04T02:05:21.662Z,16.60
2018-11-04T02:07:49.881Z,15.20
2018-11-04T02:10:18.083Z,17.20
2018-11-04T02:12:46.302Z,19.17
2018-11-04T02:15:14.508Z,20.77
2018-11-04T02:17:42.716Z,23.07
2018-11-04T02:20:12.046Z,18.63
2018-11-04T02:22:40.654Z,18.37
2018-11-04T02:25:09.875Z,20.50
2018-11-04T02:27:38.156Z,19.33
2018-11-04T02:30:07.487Z,18.23
2018-11-04T02:32:35.703Z,19.67
2018-11-04T02:35:04.095Z,18.03
2018-11-04T02:37:32.301Z,17.27
2018-11-04T02:40:00.483Z,19.13
2018-11-04T02:42:28.736Z,19.20
2018-11-04T02:44:56.968Z,19.07
2018-11-04T02:47:25.142Z,18.63
2018-11-04T02:49:53.347Z,17.73
2018-11-04T02:52:21.538Z,19.87
2018-11-04T02:54:49.758Z,21.00
2018-11-04T02:57:18.010Z,17.90
2018-11-04T02:59:46.212Z,21.00
2018-11-04T03:02:14.377Z,19.17
2018-11-04T03:04:42.617Z,20.27
2018-11-04T03:07:10.856Z,16.43
2018-11-04T03:09:39.103Z,22.53
2018-11-04T03:12:07.317Z,21.27
2018-11-04T03:14:35.527Z,20.83
2018-11-04T03:17:03.908Z,22.67
2018-11-04T03:19:32.088Z,21.53
2018-11-04T03:22:00.278Z,19.70
2018-11-04T03:24:28.858Z,23.97
2018-11-04T03:26:57.059Z,21.57
2018-11-04T03:29:25.244Z,22.63
2018-11-04T03:31:53.489Z,22.70
2018-11-04T03:34:21.710Z,22.07
2018-11-04T03:36:49.907Z,18.40
2018-11-04T03:39:18.102Z,17.37
2018-11-04T03:41:46.306Z,19.63
2018-11-04T03:44:14.535Z,20.77
2018-11-04T03:46:42.751Z,21.20
2018-11-04T03:49:10.910Z,21.67
2018-11-04T03:51:39.164Z,19.60
2018-11-04T03:54:07.400Z,20.00
2018-11-04T03:56:35.880Z,20.83
2018-11-04T03:59:04.115Z,18.33
2018-11-04T04:01:32.300Z,21.87
2018-11-04T04:04:00.515Z,22.50
2018-11-04T04:06:28.748Z,21.63
2018-11-04T04:08:56.959Z,22.17
2018-11-04T04:11:25.206Z,21.63
2018-11-04T04:13:53.388Z,22.27
2018-11-04T04:16:21.608Z,22.10
2018-11-04T04:18:49.835Z,20.23
2018-11-04T04:21:18.072Z,24.23
2018-11-04T04:23:46.271Z,26.10
2018-11-04T04:26:14.476Z,26.80
2018-11-04T04:28:42.718Z,24.33
2018-11-04T04:31:10.907Z,24.57
2018-11-04T04:33:39.115Z,24.47
2018-11-04T04:36:07.325Z,22.70
2018-11-04T04:38:35.535Z,23.13
2018-11-04T04:41:03.785Z,24.13
2018-11-04T04:43:31.959Z,24.60
2018-11-04T04:46:00.158Z,24.93
2018-11-04T04:48:28.345Z,23.83
2018-11-04T04:50:56.555Z,27.83
2018-11-04T04:53:25.461Z,29.63
2018-11-04T04:55:55.351Z,29.23
2018-11-04T04:58:23.579Z,23.83
2018-11-04T05:00:52.090Z,22.67
2018-11-04T05:03:20.356Z,23.87
2018-11-04T05:05:48.612Z,24.63
2018-11-04T05:08:16.795Z,20.67
2018-11-04T05:10:45.113Z,26.93
2018-11-04T05:13:13.353Z,23.97
2018-11-04T05:15:41.614Z,21.97
2018-11-04T05:18:09.780Z,25.47
2018-11-04T05:20:37.989Z,24.80
2018-11-04T05:23:06.185Z,21.97
2018-11-04T05:25:34.419Z,22.73
2018-11-04T05:28:02.624Z,24.37
2018-11-04T05:30:30.806Z,22.70
2018-11-04T05:32:59.007Z,24.23
2018-11-04T05:35:27.220Z,26.17
2018-11-04T05:37:55.413Z,24.80
2018-11-04T05:40:23.613Z,27.97
2018-11-04T05:42:51.846Z,26.17
2018-11-04T05:45:20.055Z,31.07
2018-11-04T05:47:48.275Z,24.53
2018-11-04T05:50:16.474Z,23.77
2018-11-04T05:52:44.690Z,25.83
2018-11-04T05:55:12.919Z,26.37
2018-11-04T05:57:41.193Z,26.63
2018-11-04T06:00:10.183Z,22.20
2018-11-04T06:02:38.430Z,25.63
2018-11-04T06:05:07.338Z,24.10
2018-11-04T06:07:35.545Z,23.73
2018-11-04T06:10:03.854Z,22.37
2018-11-04T06:12:32.091Z,25.57
2018-11-04T06:15:03.321Z,27.77
2018-11-04T06:17:31.535Z,26.83
2018-11-04T06:19:59.776Z,30.30
2018-11-04T06:22:28.018Z,27.10
2018-11-04T06:24:56.245Z,24.37
2018-11-04T06:27:24.414Z,25.30
2018-11-04T06:29:52.679Z,25.40
2018-11-04T06:32:20.901Z,27.67
2018-11-04T06:34:49.175Z,25.00
2018-11-04T06:37:17.418Z,25.17
2018-11-04T06:39:45.604Z,24.37
2018-11-04T06:42:13.814Z,25.43
2018-11-04T06:44:42.069Z,25.13
2018-11-04T06:47:10.378Z,26.37
2018-11-04T06:49:38.516Z,29.23
2018-11-04T06:52:06.718Z,26.47
2018-11-04T06:54:34.920Z,29.03
2018-11-04T06:57:03.228Z,29.80
2018-11-04T06:59:31.428Z,28.20
2018-11-04T07:01:59.651Z,25.57
2018-11-04T07:04:29.091Z,27.33
2018-11-04T07:06:57.549Z,29.67
2018-11-04T07:09:25.806Z,28.13
2018-11-04T07:11:54.009Z,32.50
2018-11-04T07:14:22.203Z,30.40
2018-11-04T07:16:50.439Z,26.20
2018-11-04T07:19:18.719Z,27.20
2018-11-04T07:21:46.980Z,26.83
2018-11-04T07:24:15.176Z,28.70
2018-11-04T07:26:43.387Z,26.07
2018-11-04T07:29:11.679Z,27.17
2018-11-04T07:31:39.901Z,27.47
2018-11-04T07:34:08.341Z,30.60
2018-11-04T07:36:36.524Z,30.60
2018-11-04T07:39:07.852Z,28.27
2018-11-04T07:41:36.012Z,27.03
2018-11-04T07:44:04.223Z,30.73
2018-11-04T07:46:32.427Z,27.53
2018-11-04T07:49:00.582Z,27.33
2018-11-04T07:51:28.871Z,27.00
2018-11-04T07:53:57.000Z,28.80
2018-11-04T07:56:25.206Z,25.97
2018-11-04T07:58:53.422Z,29.50
2018-11-04T08:01:21.668Z,31.47
2018-11-04T08:03:49.941Z,27.73
2018-11-04T08:06:18.175Z,26.57
2018-11-04T08:08:46.377Z,23.73
2018-11-04T08:11:14.598Z,34.00
2018-11-04T08:13:42.956Z,31.67
2018-11-04T08:16:11.084Z,28.97
2018-11-04T08:18:39.279Z,29.70
2018-11-04T08:21:07.528Z,31.03
2018-11-04T08:23:35.733Z,33.37
2018-11-04T08:26:03.975Z,27.23
2018-11-04T08:28:32.212Z,31.07
2018-11-04T08:31:00.404Z,26.30
2018-11-04T08:33:28.607Z,27.90
2018-11-04T08:35:56.787Z,29.40
2018-11-04T08:38:24.999Z,34.50
2018-11-04T08:40:53.187Z,31.57
2018-11-04T08:43:21.396Z,32.37
2018-11-04T08:45:49.651Z,32.27
2018-11-04T08:48:17.815Z,26.93
2018-11-04T08:50:46.022Z,30.23
2018-11-04T08:53:14.199Z,31.77
2018-11-04T08:55:42.403Z,28.53
2018-11-04T08:58:10.648Z,30.03
2018-11-04T09:00:38.847Z,37.63
2018-11-04T09:03:07.271Z,31.77
2018-11-04T09:05:35.565Z,33.20
2018-11-04T09:08:03.767Z,31.43
2018-11-04T09:10:32.035Z,32.47
2018-11-04T09:13:00.252Z,27.37
2018-11-04T09:15:28.474Z,30.73
2018-11-04T09:17:56.714Z,33.53
2018-11-04T09:20:24.887Z,35.60
2018-11-04T09:22:53.113Z,36.20
2018-11-04T09:25:21.341Z,38.90
2018-11-04T09:27:49.529Z,35.80
2018-11-04T09:30:17.747Z,31.80
2018-11-04T09:32:46.019Z,34.37
2018-11-04T09:35:14.465Z,37.17
2018-11-04T09:37:42.581Z,33.93
2018-11-04T09:40:12.020Z,37.23
2018-11-04T09:42:40.225Z,36.33
2018-11-04T09:45:08.969Z,31.63
2018-11-04T09:47:37.368Z,33.97
2018-11-04T09:50:06.779Z,32.40
2018-11-04T09:52:35.014Z,33.07
2018-11-04T09:55:03.205Z,33.17
2018-11-04T09:57:31.422Z,30.43
2018-11-04T09:59:59.664Z,34.47
2018-11-04T10:02:27.868Z,32.83
2018-11-04T10:04:56.157Z,32.10
2018-11-04T10:07:24.361Z,30.07
2018-11-04T10:09:52.595Z,33.47
2018-11-04T10:12:20.840Z,30.23
2018-11-04T10:14:49.097Z,30.20
2018-11-04T10:17:17.323Z,34.03
2018-11-04T10:19:45.644Z,31.80
2018-11-04T10:22:13.801Z,31.63
2018-11-04T10:24:42.030Z,30.27
2018-11-04T10:27:10.257Z,31.23
2018-11-04T10:29:38.466Z,34.13
2018-11-04T10:32:06.646Z,33.60
2018-11-04T10:34:34.882Z,29.50
2018-11-04T10:37:03.201Z,33.53
2018-11-04T10:39:31.339Z,30.47
2018-11-04T10:41:59.909Z,33.27
2018-11-04T10:44:28.147Z,33.80
2018-11-04T10:46:56.394Z,32.93
2018-11-04T10:49:24.674Z,31.43
2018-11-04T10:51:52.995Z,30.93
2018-11-04T10:54:21.190Z,28.27
2018-11-04T10:56:49.387Z,32.83
2018-11-04T10:59:17.626Z,32.47
2018-11-04T11:01:45.837Z,28.30
2018-11-04T11:04:14.108Z,33.90
2018-11-04T11:06:42.370Z,32.00
2018-11-04T11:09:11.159Z,29.57
2018-11-04T11:11:40.525Z,31.17
2018-11-04T11:14:08.750Z,31.93
2018-11-04T11:16:37.061Z,30.10
2018-11-04T11:19:05.423Z,35.83
2018-11-04T11:21:33.648Z,29.83
2018-11-04T11:24:01.849Z,32.17
2018-11-04T11:26:30.055Z,35.03
2018-11-04T11:28:58.285Z,30.10
2018-11-04T11:31:26.481Z,30.73
2018-11-04T11:33:54.705Z,32.23
2018-11-04T11:36:22.912Z,28.33
2018-11-04T11:38:51.085Z,31.03
2018-11-04T11:41:19.343Z,32.83
2018-11-04T11:43:47.552Z,35.50
2018-11-04T11:46:15.737Z,34.70
2018-11-04T11:48:43.948Z,32.03
2018-11-04T11:51:12.161Z,30.97
2018-11-04T11:53:40.396Z,33.67
2018-11-04T11:56:08.609Z,27.50
2018-11-04T11:58:36.879Z,29.40
2018-11-04T12:01:05.200Z,33.73
2018-11-04T12:03:33.436Z,30.83
2018-11-04T12:06:07.898Z,32.63
2018-11-04T12:08:37.113Z,30.60
2018-11-04T12:11:06.706Z,35.30
2018-11-04T12:13:35.279Z,30.73
2018-11-04T12:16:03.487Z,33.17
2018-11-04T12:18:31.814Z,34.53
2018-11-04T12:21:00.008Z,36.73
2018-11-04T12:23:28.330Z,34.77
2018-11-04T12:25:56.635Z,34.10
2018-11-04T12:28:24.973Z,32.10
2018-11-04T12:30:53.292Z,35.63
2018-11-04T12:33:21.519Z,32.73
2018-11-04T12:35:49.824Z,33.77
2018-11-04T12:38:18.039Z,31.73
2018-11-04T12:40:46.527Z,34.10
2018-11-04T12:43:14.751Z,32.87
2018-11-04T12:45:42.982Z,32.77
2018-11-04T12:48:11.296Z,32.03
2018-11-04T12:50:39.560Z,29.83
2018-11-04T12:53:07.876Z,33.77
2018-11-04T12:55:36.142Z,34.40
2018-11-04T12:58:04.418Z,36.27
2018-11-04T13:00:32.704Z,34.63
2018-11-04T13:03:01.019Z,32.93
2018-11-04T13:05:29.238Z,36.57
2018-11-04T13:07:57.434Z,34.50
2018-11-04T13:10:25.655Z,38.17
2018-11-04T13:12:53.852Z,35.53
2018-11-04T13:15:22.015Z,30.50
2018-11-04T13:17:50.216Z,35.73
2018-11-04T13:20:18.416Z,31.70
2018-11-04T13:22:46.790Z,32.87
2018-11-04T13:25:14.962Z,32.03
2018-11-04T13:27:43.143Z,34.43
2018-11-04T13:30:12.614Z,31.43
2018-11-04T13:32:40.923Z,31.60
2018-11-04T13:35:09.161Z,33.40
2018-11-04T13:37:37.399Z,32.53
2018-11-04T13:40:07.296Z,31.97
2018-11-04T13:42:35.526Z,33.83
2018-11-04T13:45:03.765Z,37.37
2018-11-04T13:47:31.957Z,30.60
2018-11-04T13:50:00.226Z,35.17
2018-11-04T13:52:28.471Z,36.73
2018-11-04T13:54:57.756Z,36.50
2018-11-04T13:57:25.965Z,29.50
2018-11-04T13:59:54.259Z,32.20
2018-11-04T14:02:22.479Z,37.37
2018-11-04T14:04:50.741Z,29.60
2018-11-04T14:07:18.943Z,29.57
2018-11-04T14:09:47.148Z,32.00
2018-11-04T14:12:15.383Z,29.37
2018-11-04T14:14:43.603Z,29.03
2018-11-04T14:17:12.948Z,29.83
2018-11-04T14:19:41.267Z,27.93
2018-11-04T14:22:09.505Z,26.00
2018-11-04T14:24:37.759Z,27.07
2018-11-04T14:27:05.995Z,27.80
2018-11-04T14:29:34.420Z,29.77
2018-11-04T14:32:02.649Z,29.13
2018-11-04T14:34:31.087Z,27.90
2018-11-04T14:36:59.352Z,28.40
2018-11-04T14:39:27.597Z,30.83
2018-11-04T14:41:55.827Z,29.33
2018-11-04T14:44:24.042Z,30.13
2018-11-04T14:46:52.466Z,29.47
2018-11-04T14:49:20.675Z,30.07
2018-11-04T14:51:48.907Z,32.30
2018-11-04T14:54:17.166Z,29.73
2018-11-04T14:56:45.451Z,29.60
2018-11-04T14:59:13.685Z,30.10
2018-11-04T15:01:42.013Z,30.53
2018-11-04T15:04:10.136Z,32.87
2018-11-04T15:06:38.607Z,31.73
2018-11-04T15:09:07.610Z,29.63
2018-11-04T15:11:35.867Z,29.93
2018-11-04T15:14:04.074Z,29.70
2018-11-04T15:16:32.297Z,30.53
2018-11-04T15:19:00.707Z,30.73
2018-11-04T15:21:29.266Z,30.47
2018-11-04T15:23:57.611Z,34.10
2018-11-04T15:26:26.034Z,31.80
2018-11-04T15:28:54.493Z,32.23
2018-11-04T15:31:22.923Z,32.07
2018-11-04T15:33:51.334Z,35.67
2018-11-04T15:36:20.101Z,31.67
2018-11-04T15:38:49.574Z,30.43
2018-11-04T15:41:18.727Z,29.40
2018-11-04T15:43:47.217Z,35.07
2018-11-04T15:46:16.064Z,29.03
2018-11-04T15:48:44.484Z,27.80
2018-11-04T15:51:12.964Z,25.87
2018-11-04T15:53:41.294Z,28.93
2018-11-04T15:56:09.867Z,26.33
2018-11-04T15:58:38.270Z,26.87
2018-11-04T16:01:06.764Z,27.60
2018-11-04T16:03:35.292Z,25.87
2018-11-04T16:06:03.806Z,27.17
2018-11-04T16:08:32.352Z,25.03
2018-11-04T16:11:01.178Z,22.93
2018-11-04T16:13:29.892Z,25.33
2018-11-04T16:15:58.332Z,25.07
2018-11-04T16:18:26.909Z,22.70
2018-11-04T16:20:56.147Z,26.07
2018-11-04T16:23:24.572Z,25.10
2018-11-04T16:25:52.983Z,23.93
2018-11-04T16:28:21.491Z,21.37
2018-11-04T16:30:49.950Z,26.10
2018-11-04T16:33:18.419Z,22.10
2018-11-04T16:35:46.738Z,23.80
2018-11-04T16:38:15.037Z,27.10
2018-11-04T16:40:43.440Z,23.60
2018-11-04T16:43:11.796Z,21.60
2018-11-04T16:45:40.091Z,29.50
2018-11-04T16:48:08.384Z,23.73
2018-11-04T16:50:36.617Z,25.57
2018-11-04T16:53:04.890Z,27.73
2018-11-04T16:55:33.269Z,24.47
2018-11-04T16:58:01.631Z,23.80
2018-11-04T17:00:29.939Z,23.70
2018-11-04T17:02:58.357Z,21.43
2018-11-04T17:05:26.935Z,22.10
2018-11-04T17:07:55.103Z,24.13
2018-11-04T17:10:23.279Z,22.97
2018-11-04T17:12:51.520Z,22.33
2018-11-04T17:15:19.705Z,24.63
2018-11-04T17:17:48.094Z,22.43
2018-11-04T17:20:17.470Z,26.00
2018-11-04T17:22:46.034Z,22.37
2018-11-04T17:25:14.298Z,24.60
2018-11-04T17:27:42.614Z,22.23
2018-11-04T17:30:12.970Z,22.50
2018-11-04T17:32:41.264Z,21.90
2018-11-04T17:35:11.058Z,26.23
2018-11-04T17:37:39.488Z,23.77
2018-11-04T17:40:08.648Z,22.07
2018-11-04T17:42:36.836Z,22.03
2018-11-04T17:45:06.170Z,20.57
2018-11-04T17:47:34.665Z,19.23
2018-11-04T17:50:03.051Z,20.57
2018-11-04T17:52:31.495Z,22.07
2018-11-04T17:55:00.000Z,19.50
2018-11-04T17:57:28.341Z,20.77
2018-11-04T17:59:56.603Z,25.40
2018-11-04T18:02:24.840Z,22.47
2018-11-04T18:04:54.149Z,27.10
2018-11-04T18:07:22.405Z,24.63
2018-11-04T18:09:50.630Z,22.77
2018-11-04T18:12:18.846Z,23.07
2018-11-04T18:14:47.070Z,45.57
2018-11-04T18:17:15.330Z,21.07
2018-11-04T18:19:43.518Z,24.37
2018-11-04T18:22:11.688Z,24.77
2018-11-04T18:24:39.902Z,30.37
2018-11-04T18:27:14.222Z,21.23
2018-11-04T18:29:42.399Z,24.20
2018-11-04T18:32:10.760Z,22.03
2018-11-04T18:34:38.966Z,20.17
2018-11-04T18:37:07.269Z,21.17
2018-11-04T18:39:35.451Z,25.93
2018-11-04T18:42:03.863Z,23.30
2018-11-04T18:44:32.555Z,19.27
2018-11-04T18:47:01.061Z,18.53
2018-11-04T18:49:29.439Z,18.37
2018-11-04T18:51:58.373Z,21.13
2018-11-04T18:54:26.710Z,25.80
2018-11-04T18:56:55.148Z,20.37
2018-11-04T18:59:23.442Z,18.13
2018-11-04T19:01:51.876Z,19.93
2018-11-04T19:04:20.243Z,20.70
2018-11-04T19:06:48.694Z,20.53
2018-11-04T19:09:17.095Z,19.37
2018-11-04T19:11:45.688Z,26.30
2018-11-04T19:14:14.059Z,16.30
2018-11-04T19:16:42.430Z,18.73
2018-11-04T19:19:10.673Z,18.20
2018-11-04T19:21:39.018Z,18.03
2018-11-04T19:24:07.290Z,17.20
2018-11-04T19:26:35.564Z,19.47
2018-11-04T19:29:03.783Z,17.60
2018-11-04T19:31:32.085Z,17.37
2018-11-04T19:34:00.291Z,17.37
2018-11-04T19:36:28.539Z,15.73
2018-11-04T19:38:56.746Z,20.87
2018-11-04T19:41:25.030Z,20.60
2018-11-04T19:43:53.234Z,18.83
2018-11-04T19:46:21.470Z,17.10
2018-11-04T19:48:49.923Z,26.60
2018-11-04T19:51:18.048Z,17.33
2018-11-04T19:53:46.397Z,17.60
2018-11-04T19:56:14.626Z,19.90
2018-11-04T19:58:42.921Z,15.10
2018-11-04T20:01:11.100Z,16.60
2018-11-04T20:03:39.338Z,15.40
2018-11-04T20:06:07.700Z,16.17
2018-11-04T20:08:35.932Z,17.30
2018-11-04T20:11:04.231Z,20.03
2018-11-04T20:13:37.887Z,15.53
2018-11-04T20:16:06.074Z,16.60
2018-11-04T20:20:44.646Z,18.60
2018-11-04T20:23:12.827Z,17.10
2018-11-04T20:25:46.505Z,17.80
2018-11-04T20:28:14.687Z,14.70
2018-11-04T20:30:43.982Z,16.53
2018-11-04T20:33:13.566Z,17.83
2018-11-04T20:35:41.780Z,18.80
2018-11-04T20:38:10.068Z,24.67
2018-11-04T20:40:43.567Z,26.40
2018-11-04T20:43:11.762Z,18.00
2018-11-04T20:45:40.023Z,18.97
2018-11-04T20:48:13.798Z,14.80
2018-11-04T20:50:47.404Z,14.17
2018-11-04T20:53:15.686Z,17.57
2018-11-04T20:55:49.292Z,16.53
2018-11-04T20:58:17.697Z,19.00
2018-11-04T21:00:45.778Z,17.20
2018-11-04T21:03:13.995Z,15.90
2018-11-04T21:05:42.198Z,15.20
2018-11-04T21:08:10.371Z,16.97
2018-11-04T21:10:38.606Z,14.30
2018-11-04T21:13:06.806Z,15.60
2018-11-04T21:15:35.043Z,15.10
2018-11-04T21:18:03.228Z,14.77
2018-11-04T21:20:31.517Z,16.50
2018-11-04T21:22:59.761Z,16.57
2018-11-04T21:25:28.154Z,13.40
2018-11-04T21:27:56.241Z,16.13
2018-11-04T21:30:24.402Z,16.47
2018-11-04T21:32:52.606Z,17.37
2018-11-04T21:35:20.782Z,17.73
2018-11-04T21:37:49.038Z,13.50
2018-11-04T21:40:17.292Z,16.20
2018-11-04T21:42:45.751Z,17.63
2018-11-04T21:45:14.256Z,16.67
2018-11-04T21:47:42.698Z,17.97
2018-11-04T21:50:11.672Z,17.00
2018-11-04T21:52:39.926Z,15.37
2018-11-04T21:55:10.046Z,13.73
2018-11-04T21:57:38.311Z,12.77
2018-11-04T22:00:08.267Z,13.20
2018-11-04T22:02:36.690Z,15.93
2018-11-04T22:05:04.850Z,14.60
2018-11-04T22:07:33.064Z,12.70
2018-11-04T22:10:01.315Z,12.63
2018-11-04T22:12:29.562Z,12.37
2018-11-04T22:14:57.831Z,11.47
2018-11-04T22:17:26.111Z,12.70
2018-11-04T22:19:54.270Z,12.50
2018-11-04T22:22:22.458Z,13.20
2018-11-04T22:24:50.693Z,12.80
2018-11-04T22:27:18.868Z,12.73
2018-11-04T22:29:47.064Z,13.20
